createdAt,value
2019-05-13T11:31:08.666Z,48.70
2019-05-13T11:33:38.244Z,48.40
2019-05-13T11:36:07.732Z,48.90
2019-05-13T11:38:37.295Z,49.60
2019-05-13T11:41:06.819Z,50.20
2019-05-13T11:43:36.434Z,50.10
2019-05-13T11:46:06.522Z,50.40
2019-05-13T11:48:36.050Z,51.20
2019-05-13T11:51:06.666Z,51.20
2019-05-13T11:53:37.648Z,51.10
2019-05-13T11:56:07.430Z,49.90
2019-05-13T11:58:38.062Z,49.00
2019-05-13T12:01:07.748Z,47.90
2019-05-13T12:03:38.257Z,49.20
2019-05-13T12:06:08.012Z,50.40
2019-05-13T12:08:37.519Z,49.50
2019-05-13T12:11:07.112Z,49.60
2019-05-13T12:13:37.043Z,49.20
2019-05-13T12:16:09.264Z,49.50
2019-05-13T12:18:43.715Z,48.50
2019-05-13T12:21:12.371Z,48.30
2019-05-13T12:23:42.842Z,47.90
2019-05-13T12:26:13.060Z,48.40
2019-05-13T12:28:43.019Z,47.90
2019-05-13T12:31:12.510Z,47.80
2019-05-13T12:33:44.043Z,47.40
2019-05-13T12:36:18.082Z,46.40
2019-05-13T12:38:47.508Z,46.40
2019-05-13T12:41:16.986Z,47.30
2019-05-13T12:43:47.558Z,46.80
2019-05-13T12:46:18.896Z,45.90
2019-05-13T12:48:48.247Z,45.90
2019-05-13T12:51:17.802Z,45.90
2019-05-13T12:53:47.634Z,46.60
2019-05-13T12:56:17.172Z,46.90
2019-05-13T12:58:46.848Z,46.90
2019-05-13T13:01:16.408Z,47.50
2019-05-13T13:03:45.971Z,48.00
2019-05-13T13:06:32.368Z,48.10
2019-05-13T13:08:49.324Z,48.00
2019-05-13T13:11:18.004Z,48.00
2019-05-13T13:13:59.705Z,48.50
2019-05-13T13:16:18.867Z,48.70
2019-05-13T13:18:48.431Z,47.80
2019-05-13T13:21:18.421Z,47.80
2019-05-13T13:23:49.023Z,48.50
2019-05-13T13:26:21.739Z,49.00
2019-05-13T13:28:55.532Z,49.50
2019-05-13T13:31:25.105Z,48.30
2019-05-13T13:33:55.159Z,48.10
2019-05-13T13:36:26.350Z,48.60
2019-05-13T13:38:56.474Z,48.30
2019-05-13T13:41:26.222Z,47.80
2019-05-13T13:43:58.391Z,47.70
2019-05-13T13:46:42.229Z,48.30
2019-05-13T13:48:59.199Z,48.60
2019-05-13T13:51:34.044Z,49.20
2019-05-13T13:54:02.104Z,49.80
2019-05-13T13:56:32.711Z,48.90
2019-05-13T13:59:04.383Z,48.10
2019-05-13T14:01:33.872Z,47.70
2019-05-13T14:04:04.658Z,47.90
2019-05-13T14:09:07.251Z,46.70
2019-05-13T14:11:37.284Z,46.00
2019-05-13T14:14:06.962Z,45.20
2019-05-13T14:16:36.623Z,45.30
2019-05-13T14:19:08.707Z,45.30
2019-05-13T14:21:38.367Z,46.50
2019-05-13T14:24:07.958Z,46.70
2019-05-13T14:26:37.564Z,46.70
2019-05-13T14:29:12.167Z,47.20
2019-05-13T14:31:41.885Z,48.10
2019-05-13T14:34:12.307Z,47.60
2019-05-13T14:36:42.775Z,46.90
2019-05-13T14:39:13.042Z,47.10
2019-05-13T14:41:42.798Z,47.90
2019-05-13T14:44:12.597Z,48.30
2019-05-13T14:46:58.720Z,46.90
2019-05-13T14:49:33.859Z,45.80
2019-05-13T14:52:03.711Z,46.20
2019-05-13T14:54:34.225Z,45.50
2019-05-13T14:57:03.840Z,46.20
2019-05-13T14:59:33.590Z,46.20
2019-05-13T15:02:03.088Z,47.00
2019-05-13T15:04:32.873Z,46.70
2019-05-13T15:07:05.119Z,47.20
2019-05-13T15:09:36.095Z,47.20
2019-05-13T15:12:05.686Z,47.40
2019-05-13T15:14:35.279Z,47.80
2019-05-13T15:17:07.463Z,48.10
2019-05-13T15:19:36.041Z,48.70
2019-05-13T15:22:06.119Z,48.70
2019-05-13T15:24:37.062Z,47.90
2019-05-13T15:27:08.250Z,48.80
2019-05-13T15:29:37.790Z,49.60
2019-05-13T15:32:07.471Z,49.10
2019-05-13T15:34:37.433Z,48.80
2019-05-13T15:37:06.947Z,48.50
2019-05-13T15:39:36.454Z,47.20
2019-05-13T15:42:06.004Z,46.80
2019-05-13T15:44:36.618Z,47.10
2019-05-13T15:47:20.234Z,46.10
2019-05-13T15:49:37.284Z,45.90
2019-05-13T15:52:06.804Z,46.20
2019-05-13T15:54:36.558Z,47.00
2019-05-13T15:57:06.107Z,47.20
2019-05-13T15:59:35.689Z,47.40
2019-05-13T16:02:05.233Z,47.20
2019-05-13T16:04:49.018Z,47.50
2019-05-13T16:07:06.295Z,47.90
2019-05-13T16:09:36.017Z,46.60
2019-05-13T16:12:05.567Z,46.40
2019-05-13T16:14:35.097Z,46.10
2019-05-13T16:17:04.625Z,46.50
2019-05-13T16:19:34.138Z,46.40
2019-05-13T16:22:06.789Z,45.90
2019-05-13T16:24:36.311Z,46.30
2019-05-13T16:27:05.902Z,46.90
2019-05-13T16:29:35.470Z,46.40
2019-05-13T16:32:05.408Z,46.30
2019-05-13T16:34:35.121Z,46.50
2019-05-13T16:37:04.826Z,46.70
2019-05-13T16:39:34.407Z,46.00
2019-05-13T16:42:03.916Z,45.50
2019-05-13T16:44:33.476Z,46.90
2019-05-13T16:47:03.309Z,47.60
2019-05-13T16:49:32.871Z,47.40
2019-05-13T16:52:02.725Z,47.00
2019-05-13T16:54:33.065Z,47.30
2019-05-13T16:57:02.880Z,48.70
2019-05-13T16:59:32.715Z,50.00
2019-05-13T17:02:02.235Z,50.60
2019-05-13T17:04:32.240Z,51.20
2019-05-13T17:07:01.886Z,51.20
2019-05-13T17:09:32.401Z,50.80
2019-05-13T17:12:02.494Z,51.00
2019-05-13T17:14:32.372Z,50.30
2019-05-13T17:17:02.033Z,51.30
2019-05-13T17:19:31.925Z,51.20
2019-05-13T17:22:02.505Z,51.40
2019-05-13T17:24:32.268Z,51.30
2019-05-13T17:27:02.732Z,51.40
2019-05-13T17:29:32.526Z,51.70
2019-05-13T17:32:02.551Z,51.90
2019-05-13T17:34:32.223Z,51.90
2019-05-13T17:37:02.723Z,52.10
2019-05-13T17:39:32.549Z,52.20
2019-05-13T17:42:02.069Z,52.60
2019-05-13T17:44:32.073Z,52.50
2019-05-13T17:47:02.137Z,52.40
2019-05-13T17:49:32.105Z,52.40
2019-05-13T17:52:02.515Z,52.40
2019-05-13T17:54:32.488Z,52.30
2019-05-13T17:57:02.220Z,52.60
2019-05-13T17:59:31.813Z,52.40
2019-05-13T18:02:02.667Z,52.50
2019-05-13T18:04:32.549Z,52.50
2019-05-13T18:07:02.116Z,52.70
2019-05-13T18:09:32.116Z,52.80
2019-05-13T18:12:02.490Z,52.90
2019-05-13T18:14:32.230Z,53.40
2019-05-13T18:17:02.387Z,53.60
2019-05-13T18:19:31.972Z,54.00
2019-05-13T18:22:02.211Z,53.90
2019-05-13T18:24:32.254Z,54.20
2019-05-13T18:27:03.793Z,54.30
2019-05-13T18:29:33.266Z,54.50
2019-05-13T18:32:02.762Z,54.50
2019-05-13T18:34:32.382Z,54.70
2019-05-13T18:37:02.616Z,54.90
2019-05-13T18:39:32.464Z,55.20
2019-05-13T18:42:02.287Z,55.80
2019-05-13T18:44:31.891Z,55.30
2019-05-13T18:47:01.743Z,55.60
2019-05-13T18:49:31.995Z,56.10
2019-05-13T18:52:01.662Z,55.60
2019-05-13T18:54:31.697Z,55.80
2019-05-13T18:57:03.420Z,55.90
2019-05-13T18:59:32.969Z,56.00
2019-05-13T19:02:02.639Z,56.30
2019-05-13T19:04:34.890Z,56.50
2019-05-13T19:07:07.556Z,57.50
2019-05-13T19:09:35.639Z,58.10
2019-05-13T19:12:05.301Z,58.50
2019-05-13T19:14:34.856Z,58.90
2019-05-13T19:17:04.350Z,59.10
2019-05-13T19:19:33.887Z,59.30
2019-05-13T19:22:05.038Z,59.40
2019-05-13T19:24:35.078Z,59.50
2019-05-13T19:27:04.639Z,59.40
2019-05-13T19:29:34.147Z,59.50
2019-05-13T19:32:03.651Z,59.60
2019-05-13T19:34:33.199Z,59.60
2019-05-13T19:37:02.745Z,59.90
2019-05-13T19:39:32.256Z,60.20
2019-05-13T19:42:01.816Z,60.40
2019-05-13T19:44:32.832Z,60.90
2019-05-13T19:47:02.309Z,61.00
2019-05-13T19:49:36.679Z,61.00
2019-05-13T19:52:03.095Z,61.30
2019-05-13T19:54:33.199Z,61.40
2019-05-13T19:57:02.812Z,61.70
2019-05-13T19:59:32.410Z,62.10
2019-05-13T20:02:02.363Z,62.50
2019-05-13T20:04:32.339Z,62.10
2019-05-13T20:07:02.410Z,62.10
2019-05-13T20:09:33.603Z,62.30
2019-05-13T20:12:03.772Z,62.20
2019-05-13T20:14:33.824Z,62.80
2019-05-13T20:17:03.588Z,62.50
2019-05-13T20:19:46.604Z,62.80
2019-05-13T20:22:04.546Z,62.60
2019-05-13T20:24:35.755Z,62.80
2019-05-13T20:27:05.261Z,63.10
2019-05-13T20:29:36.643Z,63.20
2019-05-13T20:32:06.131Z,63.40
2019-05-13T20:34:35.670Z,63.50
2019-05-13T20:37:05.189Z,63.60
2019-05-13T20:39:34.694Z,63.70
2019-05-13T20:42:04.914Z,63.90
2019-05-13T20:44:34.403Z,64.20
2019-05-13T20:47:04.163Z,64.40
2019-05-13T20:49:33.708Z,64.60
2019-05-13T20:52:03.421Z,65.10
2019-05-13T20:54:32.943Z,66.50
2019-05-13T20:57:02.466Z,67.00
2019-05-13T20:59:32.423Z,67.50
2019-05-13T21:02:02.542Z,67.90
2019-05-13T21:04:32.385Z,68.00
2019-05-13T21:07:02.381Z,68.50
2019-05-13T21:09:31.962Z,69.10
2019-05-13T21:12:02.158Z,69.70
2019-05-13T21:14:32.150Z,70.10
2019-05-13T21:17:01.821Z,70.60
2019-05-13T21:19:39.236Z,71.40
2019-05-13T21:22:04.010Z,72.10
2019-05-13T21:24:33.707Z,72.70
2019-05-13T21:27:03.229Z,73.10
2019-05-13T21:29:33.899Z,73.60
2019-05-13T21:32:03.392Z,74.30
2019-05-13T21:34:32.954Z,74.80
2019-05-13T21:37:02.614Z,75.30
2019-05-13T21:39:32.231Z,76.10
2019-05-13T21:42:03.083Z,76.60
2019-05-13T21:44:33.831Z,77.50
2019-05-13T21:47:03.287Z,78.80
2019-05-13T21:49:32.767Z,79.40
2019-05-13T21:52:02.314Z,80.20
2019-05-13T21:54:33.556Z,81.40
2019-05-13T21:57:03.246Z,82.60
2019-05-13T21:59:32.750Z,84.00
2019-05-13T22:02:03.118Z,84.20
2019-05-13T22:04:33.242Z,85.10
2019-05-13T22:07:02.729Z,86.40
2019-05-13T22:09:32.238Z,86.90
2019-05-13T22:12:02.130Z,87.50
2019-05-13T22:14:32.199Z,88.40
2019-05-13T22:17:01.940Z,89.10
2019-05-13T22:19:31.738Z,90.00
2019-05-13T22:22:02.500Z,90.40
2019-05-13T22:24:32.158Z,90.60
2019-05-13T22:27:02.098Z,90.50
2019-05-13T22:29:32.330Z,90.70
2019-05-13T22:32:02.218Z,91.10
2019-05-13T22:34:33.012Z,91.00
2019-05-13T22:37:02.680Z,90.90
2019-05-13T22:39:34.564Z,90.90
2019-05-13T22:42:03.398Z,90.80
2019-05-13T22:44:32.903Z,90.60
2019-05-13T22:47:02.956Z,90.70
2019-05-13T22:49:33.505Z,90.90
2019-05-13T22:52:03.000Z,91.20
2019-05-13T22:54:32.515Z,91.40
2019-05-13T22:57:02.085Z,91.40
2019-05-13T22:59:32.201Z,91.90
2019-05-13T23:02:01.844Z,92.20
2019-05-13T23:04:31.560Z,92.30
2019-05-13T23:07:01.442Z,92.60
2019-05-13T23:09:32.194Z,92.90
2019-05-13T23:12:01.859Z,93.30
2019-05-13T23:14:31.472Z,93.60
2019-05-13T23:17:02.107Z,94.60
2019-05-13T23:19:32.449Z,95.10
2019-05-13T23:22:02.165Z,95.50
2019-05-13T23:24:31.646Z,96.10
2019-05-13T23:27:02.628Z,96.70
2019-05-13T23:29:32.164Z,97.40
2019-05-13T23:32:01.697Z,97.90
2019-05-13T23:34:31.779Z,98.40
2019-05-13T23:37:01.557Z,99.10
2019-05-13T23:39:32.145Z,99.60
2019-05-13T23:42:03.180Z,99.90
2019-05-13T23:44:32.691Z,99.90
2019-05-13T23:47:02.235Z,99.90
2019-05-13T23:49:34.489Z,99.90
2019-05-13T23:52:04.403Z,99.90
2019-05-13T23:54:33.904Z,99.90
2019-05-13T23:57:03.535Z,99.90
2019-05-13T23:59:33.029Z,99.90
